createdAt,value
2018-04-10T00:00:02.093Z,0
2018-04-10T00:01:02.784Z,0
2018-04-10T00:02:03.440Z,0
2018-04-10T00:03:04.132Z,0
2018-04-10T00:04:04.786Z,0
2018-04-10T00:05:05.442Z,0
2018-04-10T00:06:06.096Z,0
2018-04-10T00:07:06.790Z,0
2018-04-10T00:08:07.405Z,0
2018-04-10T00:09:08.061Z,0
2018-04-10T00:10:08.717Z,0
2018-04-10T00:11:09.371Z,0
2018-04-10T00:12:10.025Z,0
2018-04-10T00:13:10.684Z,0
2018-04-10T00:14:11.382Z,0
2018-04-10T00:15:12.029Z,0
2018-04-10T00:16:12.683Z,0
2018-04-10T00:17:13.338Z,0
2018-04-10T00:18:13.991Z,0
2018-04-10T00:19:14.648Z,0
2018-04-10T00:20:15.301Z,0
2018-04-10T00:21:15.958Z,0
2018-04-10T00:22:16.612Z,0
2018-04-10T00:23:17.269Z,0
2018-04-10T00:24:17.924Z,0
2018-04-10T00:25:18.578Z,0
2018-04-10T00:26:19.231Z,0
2018-04-10T00:27:19.887Z,0
2018-04-10T00:28:20.544Z,0
2018-04-10T00:29:21.197Z,0
2018-04-10T00:30:21.850Z,0
2018-04-10T00:31:22.505Z,0
2018-04-10T00:32:23.159Z,0
2018-04-10T00:33:23.818Z,0
2018-04-10T00:34:24.469Z,0
2018-04-10T00:35:25.125Z,0
2018-04-10T00:36:25.779Z,0
2018-04-10T00:37:26.434Z,0
2018-04-10T00:38:27.088Z,0
2018-04-10T00:39:27.744Z,0
2018-04-10T00:40:28.397Z,0
2018-04-10T00:41:29.056Z,0
2018-04-10T00:42:29.707Z,0
2018-04-10T00:43:30.364Z,0
2018-04-10T00:44:31.016Z,0
2018-04-10T00:45:31.673Z,0
2018-04-10T00:46:32.327Z,0
2018-04-10T00:47:32.982Z,0
2018-04-10T00:48:33.674Z,0
2018-04-10T00:49:34.328Z,0
2018-04-10T00:50:34.982Z,0
2018-04-10T00:51:35.637Z,0
2018-04-10T00:52:36.292Z,0
2018-04-10T00:53:36.946Z,0
2018-04-10T00:54:37.601Z,0
2018-04-10T00:55:38.257Z,0
2018-04-10T00:56:38.910Z,0
2018-04-10T00:57:39.566Z,0
2018-04-10T00:58:40.219Z,0
2018-04-10T00:59:40.874Z,0
2018-04-10T01:00:41.529Z,0
2018-04-10T01:01:42.189Z,0
2018-04-10T01:02:42.838Z,0
2018-04-10T01:03:43.493Z,0
2018-04-10T01:04:44.148Z,0
2018-04-10T01:05:44.803Z,0
2018-04-10T01:06:45.457Z,0
2018-04-10T01:07:46.112Z,0
2018-04-10T01:08:46.767Z,0
2018-04-10T01:09:47.427Z,0
2018-04-10T01:10:48.112Z,0
2018-04-10T01:11:48.766Z,0
2018-04-10T01:12:49.421Z,0
2018-04-10T01:13:50.076Z,0
2018-04-10T01:14:50.734Z,0
2018-04-10T01:15:51.387Z,0
2018-04-10T01:16:52.042Z,0
2018-04-10T01:17:52.696Z,0
2018-04-10T01:18:53.350Z,0
2018-04-10T01:19:54.004Z,0
2018-04-10T01:20:54.660Z,0
2018-04-10T01:21:55.350Z,0
2018-04-10T01:22:56.024Z,0
2018-04-10T01:23:56.661Z,0
2018-04-10T01:24:57.316Z,0
2018-04-10T01:25:57.970Z,0
2018-04-10T01:26:58.624Z,0
2018-04-10T01:27:59.279Z,0
2018-04-10T01:28:59.936Z,0
2018-04-10T01:30:00.589Z,0
2018-04-10T01:31:01.247Z,0
2018-04-10T01:32:01.940Z,0
2018-04-10T01:33:02.594Z,0
2018-04-10T01:34:03.248Z,0
2018-04-10T01:35:04.003Z,0
2018-04-10T01:36:04.658Z,0
2018-04-10T01:37:05.313Z,0
2018-04-10T01:38:05.971Z,0
2018-04-10T01:39:06.621Z,0
2018-04-10T01:40:07.312Z,0
2018-04-10T01:41:07.967Z,0
2018-04-10T01:42:08.623Z,0
2018-04-10T01:43:09.276Z,0
2018-04-10T01:44:09.933Z,0
2018-04-10T01:45:10.585Z,0
2018-04-10T01:46:11.242Z,0
2018-04-10T01:47:11.931Z,0
2018-04-10T01:48:12.584Z,0
2018-04-10T01:49:13.241Z,0
2018-04-10T01:50:13.895Z,0
2018-04-10T01:51:14.548Z,0
2018-04-10T01:52:15.202Z,0
2018-04-10T01:53:15.860Z,0
2018-04-10T01:54:16.510Z,0
2018-04-10T01:55:17.165Z,0
2018-04-10T01:56:17.819Z,0
2018-04-10T01:57:18.475Z,0
2018-04-10T01:58:19.128Z,0
2018-04-10T01:59:19.783Z,0
2018-04-10T02:00:20.487Z,0
2018-04-10T02:01:21.142Z,0
2018-04-10T02:02:21.798Z,0
2018-04-10T02:03:22.452Z,0
2018-04-10T02:04:23.142Z,0
2018-04-10T02:05:23.798Z,0
2018-04-10T02:06:24.451Z,0
2018-04-10T02:07:25.109Z,0
2018-04-10T02:08:25.759Z,0
2018-04-10T02:11:51.604Z,0
2018-04-10T02:12:52.257Z,0
2018-04-10T02:13:52.912Z,0
2018-04-10T02:14:53.566Z,0
2018-04-10T02:15:54.220Z,0
2018-04-10T02:16:54.873Z,0
2018-04-10T02:17:55.529Z,0
2018-04-10T02:18:56.183Z,0
2018-04-10T02:19:56.838Z,0
2018-04-10T02:20:57.492Z,0
2018-04-10T02:21:58.147Z,0
2018-04-10T02:22:58.805Z,0
2018-04-10T02:23:59.457Z,0
2018-04-10T02:25:00.111Z,0
2018-04-10T02:26:00.767Z,0
2018-04-10T02:27:01.424Z,0
2018-04-10T02:28:02.112Z,0
2018-04-10T02:29:02.765Z,0
2018-04-10T02:30:03.457Z,0
2018-04-10T02:31:04.111Z,0
2018-04-10T02:32:05.015Z,0
2018-04-10T02:33:05.670Z,0
2018-04-10T02:34:06.362Z,0
2018-04-10T02:35:07.019Z,0
2018-04-10T02:36:07.670Z,0
2018-04-10T02:37:08.324Z,0
2018-04-10T02:38:08.978Z,0
2018-04-10T02:39:09.631Z,0
2018-04-10T02:40:10.287Z,0
2018-04-10T02:41:10.945Z,0
2018-04-10T02:42:11.595Z,0
2018-04-10T02:43:12.248Z,0
2018-04-10T02:44:12.941Z,0
2018-04-10T02:45:13.593Z,0
2018-04-10T02:46:14.249Z,0
2018-04-10T02:47:14.903Z,0
2018-04-10T02:48:15.598Z,0
2018-04-10T02:49:16.285Z,0
2018-04-10T02:50:16.943Z,0
2018-04-10T02:51:17.598Z,0
2018-04-10T02:52:18.254Z,0
2018-04-10T02:53:18.905Z,0
2018-04-10T02:54:19.580Z,0
2018-04-10T02:55:20.213Z,0
2018-04-10T02:56:20.867Z,0
2018-04-10T02:57:21.522Z,0
2018-04-10T02:58:22.176Z,0
2018-04-10T02:59:22.832Z,0
2018-04-10T03:00:23.485Z,0
2018-04-10T03:01:24.140Z,0
2018-04-10T03:02:24.794Z,0
2018-04-10T03:03:25.449Z,0
2018-04-10T03:04:26.103Z,0
2018-04-10T03:05:26.757Z,0
2018-04-10T03:06:27.411Z,0
2018-04-10T03:07:28.066Z,0
2018-04-10T03:08:28.719Z,0
2018-04-10T03:09:29.377Z,0
2018-04-10T03:10:30.028Z,0
2018-04-10T03:11:30.683Z,0
2018-04-10T03:12:31.337Z,0
2018-04-10T03:13:31.992Z,0
2018-04-10T03:14:32.645Z,0
2018-04-10T03:15:33.301Z,0
2018-04-10T03:16:33.954Z,0
2018-04-10T03:17:34.609Z,0
2018-04-10T03:18:35.262Z,0
2018-04-10T03:19:35.920Z,0
2018-04-10T03:20:36.612Z,0
2018-04-10T03:21:37.262Z,0
2018-04-10T03:22:37.917Z,0
2018-04-10T03:23:38.572Z,0
2018-04-10T03:24:39.225Z,0
2018-04-10T03:25:39.880Z,0
2018-04-10T03:26:40.533Z,0
2018-04-10T03:27:41.189Z,0
2018-04-10T03:28:41.845Z,0
2018-04-10T03:29:42.532Z,0
2018-04-10T03:30:43.190Z,0
2018-04-10T03:31:43.876Z,0
2018-04-10T03:32:44.531Z,0
2018-04-10T03:33:45.187Z,0
2018-04-10T03:34:45.842Z,0
2018-04-10T03:35:46.496Z,0
2018-04-10T03:36:47.149Z,0
2018-04-10T03:37:47.802Z,0
2018-04-10T03:38:48.457Z,0
2018-04-10T03:39:49.111Z,0
2018-04-10T03:40:49.765Z,0
2018-04-10T03:41:50.418Z,0
2018-04-10T03:42:51.073Z,0
2018-04-10T03:43:51.725Z,0
2018-04-10T03:44:52.382Z,0
2018-04-10T03:45:53.076Z,0
2018-04-10T03:46:53.726Z,0
2018-04-10T03:47:54.401Z,0
2018-04-10T03:48:55.033Z,0
2018-04-10T03:49:55.688Z,0
2018-04-10T03:50:56.342Z,0
2018-04-10T03:51:56.995Z,0
2018-04-10T03:52:57.648Z,0
2018-04-10T03:53:58.303Z,0
2018-04-10T03:54:58.956Z,0
2018-04-10T03:55:59.610Z,0
2018-04-10T03:57:00.300Z,0
2018-04-10T03:58:00.956Z,0
2018-04-10T03:59:01.610Z,0
2018-04-10T04:00:02.305Z,0
2018-04-10T04:01:02.955Z,0
2018-04-10T04:02:03.608Z,0
2018-04-10T04:03:04.315Z,4
2018-04-10T04:04:05.002Z,4
2018-04-10T04:05:05.657Z,0
2018-04-10T04:06:06.312Z,4
2018-04-10T04:07:06.962Z,4
2018-04-10T04:08:07.615Z,4
2018-04-10T04:09:08.268Z,4
2018-04-10T04:10:08.920Z,8
2018-04-10T04:11:09.573Z,8
2018-04-10T04:12:10.227Z,12
2018-04-10T04:13:10.884Z,12
2018-04-10T04:14:11.536Z,12
2018-04-10T04:15:12.189Z,16
2018-04-10T04:16:12.843Z,20
2018-04-10T04:17:13.497Z,20
2018-04-10T04:18:14.151Z,28
2018-04-10T04:19:14.842Z,28
2018-04-10T04:20:15.496Z,36
2018-04-10T04:21:16.149Z,40
2018-04-10T04:22:16.804Z,48
2018-04-10T04:23:17.491Z,52
2018-04-10T04:24:18.147Z,64
2018-04-10T04:25:18.800Z,72
2018-04-10T04:26:19.454Z,80
2018-04-10T04:27:20.108Z,88
2018-04-10T04:28:20.763Z,100
2018-04-10T04:29:21.422Z,112
2018-04-10T04:30:22.074Z,124
2018-04-10T04:31:22.727Z,140
2018-04-10T04:32:23.382Z,152
2018-04-10T04:33:24.039Z,168
2018-04-10T04:34:24.692Z,184
2018-04-10T04:35:25.347Z,204
2018-04-10T04:36:26.001Z,220
2018-04-10T04:37:26.657Z,240
2018-04-10T04:38:27.312Z,260
2018-04-10T04:39:27.967Z,284
2018-04-10T04:40:28.622Z,304
2018-04-10T04:41:29.277Z,328
2018-04-10T04:42:29.934Z,352
2018-04-10T04:43:30.590Z,380
2018-04-10T04:44:31.245Z,408
2018-04-10T04:45:31.902Z,432
2018-04-10T04:46:32.594Z,460
2018-04-10T04:47:33.251Z,492
2018-04-10T04:48:33.904Z,524
2018-04-10T04:49:34.561Z,556
2018-04-10T04:50:35.216Z,588
2018-04-10T04:51:35.873Z,620
2018-04-10T04:52:36.527Z,652
2018-04-10T04:53:37.182Z,688
2018-04-10T04:54:37.837Z,728
2018-04-10T04:55:38.492Z,760
2018-04-10T04:56:39.149Z,800
2018-04-10T04:57:39.804Z,844
2018-04-10T04:58:40.462Z,880
2018-04-10T04:59:41.115Z,920
2018-04-10T05:00:41.770Z,964
2018-04-10T05:01:42.429Z,1004
2018-04-10T05:02:43.085Z,1052
2018-04-10T05:03:43.740Z,1096
2018-04-10T05:04:44.398Z,1144
2018-04-10T05:05:45.054Z,1192
2018-04-10T05:06:45.712Z,1240
2018-04-10T05:07:46.370Z,1288
2018-04-10T05:08:47.027Z,1336
2018-04-10T05:09:47.683Z,1388
2018-04-10T05:10:48.340Z,1440
2018-04-10T05:11:48.996Z,1492
2018-04-10T05:12:49.655Z,1544
2018-04-10T05:13:50.314Z,1592
2018-04-10T05:14:50.971Z,1644
2018-04-10T05:15:51.627Z,1696
2018-04-10T05:16:52.284Z,1748
2018-04-10T05:17:53.024Z,1800
2018-04-10T05:18:53.784Z,1856
2018-04-10T05:19:54.442Z,1908
2018-04-10T05:20:55.099Z,1960
2018-04-10T05:21:55.758Z,2012
2018-04-10T05:22:56.446Z,2060
2018-04-10T05:23:57.074Z,2112
2018-04-10T05:24:57.732Z,2164
2018-04-10T05:25:58.393Z,2216
2018-04-10T05:26:59.086Z,2272
2018-04-10T05:27:59.745Z,2324
2018-04-10T05:29:00.403Z,2376
2018-04-10T05:30:01.099Z,2432
2018-04-10T05:31:01.757Z,2484
2018-04-10T05:32:02.416Z,2536
2018-04-10T05:33:03.074Z,2592
2018-04-10T05:34:03.737Z,2640
2018-04-10T05:35:04.394Z,2700
2018-04-10T05:36:05.052Z,2756
2018-04-10T05:37:05.709Z,2812
2018-04-10T05:38:06.368Z,2868
2018-04-10T05:39:07.035Z,2916
2018-04-10T05:40:07.685Z,2968
2018-04-10T05:41:08.345Z,3016
2018-04-10T05:42:09.005Z,3068
2018-04-10T05:43:09.662Z,3116
2018-04-10T05:44:10.320Z,3168
2018-04-10T05:45:10.979Z,3220
2018-04-10T05:46:11.638Z,3276
2018-04-10T05:47:12.294Z,3328
2018-04-10T05:48:12.957Z,3380
2018-04-10T05:49:13.650Z,3436
2018-04-10T05:50:14.308Z,3500
2018-04-10T05:51:14.967Z,3560
2018-04-10T05:52:15.627Z,3620
2018-04-10T05:53:16.287Z,3676
2018-04-10T05:54:16.945Z,3720
2018-04-10T05:55:17.606Z,3764
2018-04-10T05:56:18.264Z,3820
2018-04-10T05:57:18.922Z,3872
2018-04-10T05:58:19.582Z,3928
2018-04-10T05:59:20.240Z,3988
2018-04-10T06:00:20.899Z,4052
2018-04-10T06:01:21.558Z,4112
2018-04-10T06:02:22.217Z,4164
2018-04-10T06:03:22.912Z,4220
2018-04-10T06:04:23.571Z,4272
2018-04-10T06:05:24.233Z,4324
2018-04-10T06:06:24.928Z,4376
2018-04-10T06:07:25.590Z,4432
2018-04-10T06:08:26.250Z,4492
2018-04-10T06:09:26.911Z,4544
2018-04-10T06:10:27.570Z,4592
2018-04-10T06:11:28.232Z,4632
2018-04-10T06:12:28.891Z,4668
2018-04-10T06:13:29.549Z,4720
2018-04-10T06:14:30.209Z,4776
2018-04-10T06:15:30.871Z,4836
2018-04-10T06:16:31.569Z,4896
2018-04-10T06:17:32.264Z,4948
2018-04-10T06:18:32.928Z,5012
2018-04-10T06:19:33.593Z,5080
2018-04-10T06:20:34.246Z,5152
2018-04-10T06:21:34.907Z,5216
2018-04-10T06:22:35.570Z,5288
2018-04-10T06:23:36.232Z,5352
2018-04-10T06:24:36.892Z,5404
2018-04-10T06:25:37.553Z,5456
2018-04-10T06:26:38.250Z,5504
2018-04-10T06:27:38.908Z,5564
2018-04-10T06:28:39.570Z,5640
2018-04-10T06:29:40.232Z,5708
2018-04-10T06:30:40.895Z,5776
2018-04-10T06:31:41.557Z,5832
2018-04-10T06:32:42.217Z,5892
2018-04-10T06:33:42.877Z,5960
2018-04-10T06:34:43.538Z,6044
2018-04-10T06:35:44.201Z,6116
2018-04-10T06:36:44.861Z,6184
2018-04-10T06:37:45.560Z,6248
2018-04-10T06:38:46.221Z,6316
2018-04-10T06:39:46.882Z,6384
2018-04-10T06:40:47.543Z,6456
2018-04-10T06:41:48.203Z,6528
2018-04-10T06:42:48.864Z,6592
2018-04-10T06:43:49.526Z,6664
2018-04-10T06:44:50.186Z,6736
2018-04-10T06:45:50.846Z,6820
2018-04-10T06:46:51.509Z,6916
2018-04-10T06:47:52.169Z,7044
2018-04-10T06:48:52.830Z,7212
2018-04-10T06:49:53.541Z,16544
2018-04-10T06:50:54.202Z,33248
2018-04-10T06:51:54.865Z,41440
2018-04-10T06:52:55.570Z,38720
2018-04-10T06:53:56.191Z,41184
2018-04-10T06:54:56.854Z,41856
2018-04-10T06:55:57.521Z,38048
2018-04-10T06:56:58.217Z,38304
2018-04-10T06:57:58.882Z,39872
2018-04-10T06:58:59.544Z,41600
2018-04-10T07:00:00.208Z,44384
2018-04-10T07:01:00.870Z,43840
2018-04-10T07:02:01.573Z,40384
2018-04-10T07:03:02.238Z,39168
2018-04-10T07:04:02.902Z,39104
2018-04-10T07:05:03.565Z,43648
2018-04-10T07:06:04.240Z,43712
2018-04-10T07:07:04.898Z,39616
2018-04-10T07:08:05.564Z,42368
2018-04-10T07:09:06.231Z,45664
2018-04-10T07:10:06.896Z,44128
2018-04-10T07:11:07.562Z,42528
2018-04-10T07:12:08.264Z,45536
2018-04-10T07:13:08.931Z,48832
2018-04-10T07:14:09.597Z,47296
2018-04-10T07:15:10.264Z,45792
2018-04-10T07:16:10.929Z,45472
2018-04-10T07:17:11.597Z,44736
2018-04-10T07:18:12.264Z,40672
2018-04-10T07:19:12.933Z,40416
2018-04-10T07:20:13.598Z,39328
2018-04-10T07:21:14.269Z,38848
2018-04-10T07:22:14.969Z,40128
2018-04-10T07:23:15.636Z,41184
2018-04-10T07:24:16.309Z,30528
2018-04-10T07:25:16.973Z,14964
2018-04-10T07:26:17.641Z,12172
2018-04-10T07:27:18.311Z,11404
2018-04-10T07:28:18.981Z,11008
2018-04-10T07:29:19.655Z,10732
2018-04-10T07:30:20.357Z,10500
2018-04-10T07:31:21.026Z,10320
2018-04-10T07:32:21.697Z,10144
2018-04-10T07:33:22.365Z,10000
2018-04-10T07:34:23.069Z,9864
2018-04-10T07:35:23.737Z,9780
2018-04-10T07:36:24.442Z,9708
2018-04-10T07:37:25.111Z,9632
2018-04-10T07:38:25.778Z,9552
2018-04-10T07:39:26.446Z,9496
2018-04-10T07:40:27.114Z,9428
2018-04-10T07:41:27.782Z,9352
2018-04-10T07:42:28.451Z,9296
2018-04-10T07:43:29.130Z,9252
2018-04-10T07:44:29.791Z,8116
2018-04-10T07:45:30.458Z,7720
2018-04-10T07:46:31.126Z,7876
2018-04-10T07:47:31.798Z,8820
2018-04-10T07:48:32.463Z,8924
2018-04-10T07:49:33.131Z,8868
2018-04-10T07:50:33.799Z,8748
2018-04-10T07:51:34.469Z,8564
2018-04-10T07:52:35.139Z,8540
2018-04-10T07:53:35.810Z,8560
2018-04-10T07:54:36.475Z,8588
2018-04-10T07:55:37.143Z,8564
2018-04-10T07:56:37.813Z,8492
2018-04-10T07:57:38.483Z,8436
2018-04-10T07:58:39.189Z,8392
2018-04-10T07:59:39.858Z,8372
2018-04-10T08:00:40.575Z,8368
2018-04-10T08:01:41.226Z,8332
2018-04-10T08:02:41.896Z,8280
2018-04-10T08:03:42.565Z,8220
2018-04-10T08:04:43.237Z,8172
2018-04-10T08:05:43.906Z,8168
2018-04-10T08:06:44.577Z,8156
2018-04-10T08:07:45.248Z,8152
2018-04-10T08:08:45.914Z,8140
2018-04-10T08:09:46.584Z,8144
2018-04-10T08:10:47.289Z,8156
2018-04-10T08:11:47.959Z,8148
2018-04-10T08:12:48.630Z,8124
2018-04-10T08:13:49.300Z,8080
2018-04-10T08:14:49.988Z,8040
2018-04-10T08:15:50.639Z,8020
2018-04-10T08:16:51.309Z,8004
2018-04-10T08:17:51.979Z,7992
2018-04-10T08:18:52.650Z,8044
2018-04-10T08:19:53.321Z,8080
2018-04-10T08:20:53.990Z,8044
2018-04-10T08:21:54.662Z,7996
2018-04-10T08:22:55.331Z,7964
2018-04-10T08:23:56.001Z,7948
2018-04-10T08:24:56.674Z,7940
2018-04-10T08:25:57.339Z,7916
2018-04-10T08:26:58.010Z,7868
2018-04-10T08:27:58.679Z,7836
2018-04-10T08:28:59.349Z,7788
2018-04-10T08:30:00.024Z,7744
2018-04-10T08:31:00.703Z,7700
2018-04-10T08:32:01.375Z,7676
2018-04-10T08:33:02.071Z,7648
2018-04-10T08:34:02.719Z,7616
2018-04-10T08:35:03.389Z,7580
2018-04-10T08:36:04.059Z,7540
2018-04-10T08:37:04.760Z,7484
2018-04-10T08:38:05.401Z,7436
2018-04-10T08:39:06.076Z,7380
2018-04-10T08:40:06.742Z,7344
2018-04-10T08:41:07.418Z,7308
2018-04-10T08:42:08.089Z,7308
2018-04-10T08:43:08.760Z,7284
2018-04-10T08:44:09.431Z,7256
2018-04-10T08:45:10.100Z,7224
2018-04-10T08:46:10.770Z,7192
2018-04-10T08:47:11.441Z,7160
2018-04-10T08:48:12.111Z,7124
2018-04-10T08:49:12.783Z,7092
2018-04-10T08:50:13.452Z,7056
2018-04-10T08:51:14.124Z,7012
2018-04-10T08:52:14.796Z,6960
2018-04-10T08:53:15.466Z,6912
2018-04-10T08:54:16.137Z,6868
2018-04-10T08:55:16.808Z,6832
2018-04-10T08:56:17.479Z,6804
2018-04-10T08:57:18.149Z,6776
2018-04-10T08:58:18.818Z,6732
2018-04-10T08:59:19.490Z,6688
2018-04-10T09:00:20.161Z,6652
2018-04-10T09:01:20.832Z,6612
2018-04-10T09:02:21.502Z,6588
2018-04-10T09:03:22.177Z,6564
2018-04-10T09:04:22.850Z,6544
2018-04-10T09:05:23.519Z,6532
2018-04-10T09:06:24.189Z,6524
2018-04-10T09:07:24.860Z,6508
2018-04-10T09:08:25.529Z,6476
2018-04-10T09:09:26.200Z,6432
2018-04-10T09:10:26.875Z,6368
2018-04-10T09:11:27.547Z,6308
2018-04-10T09:12:28.220Z,6272
2018-04-10T09:13:28.891Z,6244
2018-04-10T09:14:29.561Z,6240
2018-04-10T09:15:30.267Z,6248
2018-04-10T09:16:30.938Z,6260
2018-04-10T09:17:31.645Z,6284
2018-04-10T09:18:32.315Z,6296
2018-04-10T09:19:32.985Z,6292
2018-04-10T09:20:33.654Z,6280
2018-04-10T09:21:34.373Z,6256
2018-04-10T09:22:35.044Z,6236
2018-04-10T09:23:35.715Z,6204
2018-04-10T09:24:36.387Z,6200
2018-04-10T09:25:37.093Z,6200
2018-04-10T09:26:37.763Z,6176
2018-04-10T09:27:38.434Z,6156
2018-04-10T09:28:39.104Z,6152
2018-04-10T09:29:39.772Z,6140
2018-04-10T09:30:40.443Z,6132
2018-04-10T09:31:41.115Z,6120
2018-04-10T09:32:41.792Z,6100
2018-04-10T09:33:42.464Z,6068
2018-04-10T09:34:43.137Z,6052
2018-04-10T09:35:43.811Z,6036
2018-04-10T09:36:44.481Z,6016
2018-04-10T09:37:45.191Z,5996
2018-04-10T09:38:45.861Z,5980
2018-04-10T09:39:46.530Z,5960
2018-04-10T09:40:47.199Z,5956
2018-04-10T09:41:47.905Z,5964
2018-04-10T09:42:48.575Z,5944
2018-04-10T09:43:49.283Z,5920
2018-04-10T09:44:49.957Z,5916
2018-04-10T09:45:50.625Z,5912
2018-04-10T09:46:51.334Z,5892
2018-04-10T09:47:52.004Z,5876
2018-04-10T09:48:52.673Z,5868
2018-04-10T09:49:53.343Z,5868
2018-04-10T09:50:54.012Z,5848
2018-04-10T09:51:54.683Z,5824
2018-04-10T09:52:55.354Z,5800
2018-04-10T09:53:56.023Z,5780
2018-04-10T09:54:56.692Z,5768
2018-04-10T09:55:57.363Z,5744
2018-04-10T09:56:58.067Z,5720
2018-04-10T09:57:58.736Z,5708
2018-04-10T09:58:59.408Z,5700
2018-04-10T10:00:00.080Z,5692
2018-04-10T10:01:00.750Z,5664
2018-04-10T10:02:01.420Z,5620
2018-04-10T10:03:02.088Z,5568
2018-04-10T10:04:02.759Z,5564
2018-04-10T10:05:03.429Z,5504
2018-04-10T10:06:04.098Z,5492
2018-04-10T10:07:04.770Z,5488
2018-04-10T10:08:05.477Z,5480
2018-04-10T10:09:06.143Z,5476
2018-04-10T10:10:06.813Z,5432
2018-04-10T10:11:07.483Z,5424
2018-04-10T10:12:08.155Z,5444
2018-04-10T10:13:08.821Z,5372
2018-04-10T10:14:09.496Z,5376
2018-04-10T10:15:10.160Z,5376
2018-04-10T10:16:10.831Z,5360
2018-04-10T10:17:11.500Z,5336
2018-04-10T10:18:12.168Z,5320
2018-04-10T10:19:12.838Z,5308
2018-04-10T10:20:13.508Z,5308
2018-04-10T10:21:14.177Z,5304
2018-04-10T10:22:14.896Z,5312
2018-04-10T10:23:15.565Z,5324
2018-04-10T10:24:16.237Z,5352
2018-04-10T10:25:16.910Z,5372
2018-04-10T10:26:17.577Z,5380
2018-04-10T10:27:18.258Z,5388
2018-04-10T10:28:18.914Z,5396
2018-04-10T10:29:19.583Z,5400
2018-04-10T10:30:20.251Z,5408
2018-04-10T10:31:20.920Z,5420
2018-04-10T10:32:21.588Z,5404
2018-04-10T10:33:22.257Z,5396
2018-04-10T10:34:22.964Z,5372
2018-04-10T10:35:23.635Z,5376
2018-04-10T10:36:24.304Z,5384
2018-04-10T10:37:24.972Z,5380
2018-04-10T10:38:25.640Z,5448
2018-04-10T10:39:26.309Z,5428
2018-04-10T10:40:26.980Z,5432
2018-04-10T10:41:27.682Z,5444
2018-04-10T10:42:28.400Z,5456
2018-04-10T10:43:29.068Z,5472
2018-04-10T10:44:29.735Z,5352
2018-04-10T10:45:30.401Z,5368
2018-04-10T10:46:31.069Z,5376
2018-04-10T10:47:31.736Z,5360
2018-04-10T10:48:32.404Z,5380
2018-04-10T10:49:33.074Z,5412
2018-04-10T10:50:33.779Z,5460
2018-04-10T10:51:34.446Z,5480
2018-04-10T10:52:35.115Z,5468
2018-04-10T10:53:35.781Z,5452
2018-04-10T10:54:36.450Z,5448
2018-04-10T10:55:37.118Z,5468
2018-04-10T10:56:37.786Z,5464
2018-04-10T10:57:38.455Z,5464
2018-04-10T10:58:39.124Z,5436
2018-04-10T10:59:39.791Z,5460
2018-04-10T11:00:40.464Z,5488
2018-04-10T11:01:41.173Z,5492
2018-04-10T11:02:41.869Z,5508
2018-04-10T11:03:42.536Z,5480
2018-04-10T11:04:43.205Z,5484
2018-04-10T11:05:43.874Z,5468
2018-04-10T11:06:44.542Z,5460
2018-04-10T11:07:45.235Z,5448
2018-04-10T11:08:45.881Z,5432
2018-04-10T11:09:46.543Z,5452
2018-04-10T11:10:47.211Z,5456
2018-04-10T11:11:47.877Z,5464
2018-04-10T11:12:48.546Z,5444
2018-04-10T11:13:49.217Z,5440
2018-04-10T11:14:49.880Z,5436
2018-04-10T11:15:50.549Z,5456
2018-04-10T11:16:51.215Z,5464
2018-04-10T11:17:51.884Z,5472
2018-04-10T11:18:52.553Z,5488
2018-04-10T11:19:53.255Z,5504
2018-04-10T11:20:53.925Z,5496
2018-04-10T11:21:54.593Z,5520
2018-04-10T11:22:55.260Z,5552
2018-04-10T11:23:55.927Z,5528
2018-04-10T11:24:56.594Z,5516
2018-04-10T11:25:57.262Z,5544
2018-04-10T11:26:57.931Z,5584
2018-04-10T11:27:58.596Z,5604
2018-04-10T11:28:59.263Z,5576
2018-04-10T11:29:59.935Z,5548
2018-04-10T11:31:00.601Z,5556
2018-04-10T11:32:01.271Z,5552
2018-04-10T11:33:01.940Z,5564
2018-04-10T11:34:02.607Z,5540
2018-04-10T11:35:03.276Z,5548
2018-04-10T11:36:03.943Z,5524
2018-04-10T11:37:04.635Z,5556
2018-04-10T11:38:05.336Z,5612
2018-04-10T11:39:06.013Z,5632
2018-04-10T11:40:06.678Z,5644
2018-04-10T11:41:07.345Z,5668
2018-04-10T11:42:08.020Z,5716
2018-04-10T11:43:08.720Z,5764
2018-04-10T11:44:09.390Z,5796
2018-04-10T11:45:10.059Z,5812
2018-04-10T11:46:10.725Z,5804
2018-04-10T11:47:11.391Z,5808
2018-04-10T11:48:12.063Z,5812
2018-04-10T11:49:12.727Z,5836
2018-04-10T11:50:13.396Z,5792
2018-04-10T11:51:14.099Z,5728
2018-04-10T11:52:14.767Z,5644
2018-04-10T11:53:15.434Z,5696
2018-04-10T11:54:16.100Z,5676
2018-04-10T11:55:16.766Z,5640
2018-04-10T11:56:17.433Z,5684
2018-04-10T11:57:18.101Z,5680
2018-04-10T11:58:18.769Z,5660
2018-04-10T11:59:19.438Z,5644
2018-04-10T12:00:20.106Z,5660
2018-04-10T12:01:20.774Z,5644
2018-04-10T12:02:21.441Z,5664
2018-04-10T12:03:22.108Z,5656
2018-04-10T12:04:22.776Z,5612
2018-04-10T12:05:23.482Z,5580
2018-04-10T12:06:24.148Z,5456
2018-04-10T12:07:24.817Z,5424
2018-04-10T12:08:25.540Z,5384
2018-04-10T12:09:26.207Z,5280
2018-04-10T12:10:26.873Z,5320
2018-04-10T12:11:27.540Z,5460
2018-04-10T12:12:28.207Z,5484
2018-04-10T12:13:28.872Z,5556
2018-04-10T12:14:29.544Z,5620
2018-04-10T12:15:30.209Z,5608
2018-04-10T12:16:30.891Z,5624
2018-04-10T12:17:31.559Z,5624
2018-04-10T12:18:32.229Z,5620
2018-04-10T12:19:32.934Z,5608
2018-04-10T12:20:33.606Z,5620
2018-04-10T12:21:34.297Z,5632
2018-04-10T12:22:34.940Z,5636
2018-04-10T12:23:35.768Z,5644
2018-04-10T12:24:36.435Z,5640
2018-04-10T12:25:37.101Z,5644
2018-04-10T12:26:37.773Z,5668
2018-04-10T12:27:38.475Z,5676
2018-04-10T12:28:39.141Z,5652
2018-04-10T12:29:39.807Z,5632
2018-04-10T12:30:40.524Z,5604
2018-04-10T12:31:41.177Z,5628
2018-04-10T12:32:41.847Z,5680
2018-04-10T12:33:42.517Z,5608
2018-04-10T12:34:43.186Z,5668
2018-04-10T12:35:43.853Z,5620
2018-04-10T12:36:44.524Z,5616
2018-04-10T12:37:45.195Z,5616
2018-04-10T12:38:45.862Z,5600
2018-04-10T12:39:46.529Z,5564
2018-04-10T12:40:47.197Z,5552
2018-04-10T12:41:47.863Z,5568
2018-04-10T12:42:48.536Z,5516
2018-04-10T12:43:49.202Z,5472
2018-04-10T12:44:49.870Z,5508
2018-04-10T12:45:50.537Z,5568
2018-04-10T12:46:51.204Z,5612
2018-04-10T12:47:51.871Z,5632
2018-04-10T12:48:52.540Z,5664
2018-04-10T12:49:53.243Z,5676
2018-04-10T12:50:53.915Z,5644
2018-04-10T12:51:54.582Z,5620
2018-04-10T12:52:55.250Z,5640
2018-04-10T12:53:55.917Z,5884
2018-04-10T12:54:56.584Z,5744
2018-04-10T12:55:57.252Z,5796
2018-04-10T12:56:57.927Z,5760
2018-04-10T12:57:58.588Z,5772
2018-04-10T12:58:59.255Z,5772
2018-04-10T12:59:59.924Z,5780
2018-04-10T13:01:00.594Z,5764
2018-04-10T13:02:01.261Z,5756
2018-04-10T13:03:01.935Z,5868
2018-04-10T13:04:02.602Z,6008
2018-04-10T13:05:03.273Z,7456
2018-04-10T13:06:03.940Z,8100
2018-04-10T13:07:04.607Z,6920
2018-04-10T13:08:05.275Z,6160
2018-04-10T13:09:05.942Z,5804
2018-04-10T13:10:06.611Z,5756
2018-04-10T13:11:07.283Z,5764
2018-04-10T13:12:08.017Z,5752
2018-04-10T13:13:08.655Z,5808
2018-04-10T13:14:09.322Z,5752
2018-04-10T13:15:09.991Z,5792
2018-04-10T13:16:10.662Z,5848
2018-04-10T13:17:11.365Z,5828
2018-04-10T13:18:12.071Z,5804
2018-04-10T13:19:12.760Z,5752
2018-04-10T13:20:13.407Z,5772
2018-04-10T13:21:14.076Z,5752
2018-04-10T13:22:14.743Z,5712
2018-04-10T13:23:15.411Z,5728
2018-04-10T13:24:16.078Z,5712
2018-04-10T13:25:16.783Z,5780
2018-04-10T13:26:17.451Z,5784
2018-04-10T13:27:18.118Z,5844
2018-04-10T13:28:18.785Z,5800
2018-04-10T13:29:19.453Z,5808
2018-04-10T13:30:20.158Z,5828
2018-04-10T13:31:20.826Z,5836
2018-04-10T13:32:21.493Z,5812
2018-04-10T13:33:22.163Z,5832
2018-04-10T13:34:22.830Z,5856
2018-04-10T13:35:23.497Z,5852
2018-04-10T13:36:24.164Z,5892
2018-04-10T13:37:24.832Z,5900
2018-04-10T13:38:25.498Z,5848
2018-04-10T13:39:26.317Z,5804
2018-04-10T13:40:26.985Z,5808
2018-04-10T13:41:27.653Z,5828
2018-04-10T13:42:28.323Z,5848
2018-04-10T13:43:28.989Z,5816
2018-04-10T13:44:29.660Z,5856
2018-04-10T13:45:30.327Z,5844
2018-04-10T13:46:30.997Z,5904
2018-04-10T13:47:31.664Z,5912
2018-04-10T13:48:32.331Z,5884
2018-04-10T13:49:33.005Z,5852
2018-04-10T13:50:33.667Z,5884
2018-04-10T13:51:34.339Z,5868
2018-04-10T13:52:35.040Z,5920
2018-04-10T13:53:35.710Z,5900
2018-04-10T13:54:36.402Z,5892